Time;durP1;ratioP1;P1;durP2;ratioP2;P2;SDS_P1;SDS_P2;PMS_P1;PMS_P2;Temp;Humidity;BMP_temperature;BMP_pressure;BME280_temperature;BME280_humidity;BME280_pressure;Samples;Min_cycle;Max_cycle;Signal;HPM_P1;HPM_P2
2021/10/21 00:01:45;;;;;;;19.67;15.30;;;;;;;;;;143731;591;46023;-85
2021/10/21 00:04:13;;;;;;;17.10;15.10;;;;;;;;;;143733;564;46010;-83
2021/10/21 00:06:43;;;;;;;17.55;14.90;;;;;;;;;;143735;625;46020;-87
2021/10/21 00:09:11;;;;;;;15.60;14.18;;;;;;;;;;143736;583;46010;-84
2021/10/21 00:11:39;;;;;;;16.20;14.60;;;;;;;;;;143733;613;46012;-85
2021/10/21 00:14:18;;;;;;;21.83;14.10;;;;;;;;;;143735;717;45919;-87
2021/10/21 00:17:13;;;;;;;16.40;14.60;;;;;;;;;;143738;580;45021;-88
2021/10/21 00:20:00;;;;;;;16.45;14.70;;;;;;;;;;143739;630;45020;-90
2021/10/21 00:22:55;;;;;;;17.75;15.88;;;;;;;;;;143736;609;45023;-89
2021/10/21 00:25:23;;;;;;;16.08;14.35;;;;;;;;;;143733;575;46020;-88
2021/10/21 00:27:50;;;;;;;17.10;15.30;;;;;;;;;;143731;590;47020;-89
2021/10/21 00:30:18;;;;;;;16.75;14.90;;;;;;;;;;143734;703;46018;-86
2021/10/21 00:32:46;;;;;;;20.20;17.40;;;;;;;;;;143731;624;46022;-87
2021/10/21 00:35:15;;;;;;;22.75;18.92;;;;;;;;;;143730;569;46010;-88
2021/10/21 00:37:51;;;;;;;;;;;;;;;;;;;;;
2021/10/21 00:40:28;;;;;;;24.17;20.17;;;;;;;;;;143734;623;47020;-88
2021/10/21 00:43:03;;;;;;;22.95;19.17;;;;;;;;;;143732;588;47022;-90
2021/10/21 00:45:59;;;;;;;22.52;20.00;;;;;;;;;;143733;594;46021;-88
2021/10/21 00:48:26;;;;;;;20.27;18.12;;;;;;;;;;143734;616;46020;-88
2021/10/21 00:50:53;;;;;;;18.52;15.95;;;;;;;;;;143734;578;46011;-90
2021/10/21 00:53:20;;;;;;;20.75;18.58;;;;;;;;;;143733;617;47023;-88
2021/10/21 00:55:46;;;;;;;26.12;17.37;;;;;;;;;;143733;605;46020;-88
2021/10/21 00:58:13;;;;;;;20.30;15.63;;;;;;;;;;143731;607;47020;-88
2021/10/21 01:00:40;;;;;;;19.35;16.77;;;;;;;;;;143734;582;46018;-87
2021/10/21 01:03:07;;;;;;;16.95;15.27;;;;;;;;;;143733;588;47022;-89
2021/10/21 01:05:34;;;;;;;18.52;14.93;;;;;;;;;;143732;586;46010;-89
2021/10/21 01:08:02;;;;;;;17.48;15.27;;;;;;;;;;143735;566;46021;-89
2021/10/21 01:10:29;;;;;;;21.60;15.20;;;;;;;;;;143735;608;46018;-87
2021/10/21 01:12:56;;;;;;;17.02;14.43;;;;;;;;;;143732;585;47022;-87
2021/10/21 01:15:30;;;;;;;17.12;13.90;;;;;;;;;;143730;595;46919;-89
2021/10/21 01:17:57;;;;;;;23.98;13.75;;;;;;;;;;143733;566;46020;-87
2021/10/21 01:20:26;;;;;;;15.25;13.65;;;;;;;;;;143733;569;46018;-89
2021/10/21 01:22:53;;;;;;;16.98;13.80;;;;;;;;;;143730;570;47023;-87
2021/10/21 01:25:21;;;;;;;14.20;12.35;;;;;;;;;;143731;580;46020;-87
2021/10/21 01:27:49;;;;;;;14.85;13.27;;;;;;;;;;143733;579;46020;-88
2021/10/21 01:30:18;;;;;;;21.75;14.10;;;;;;;;;;143733;564;46010;-87
2021/10/21 01:32:45;;;;;;;17.35;14.40;;;;;;;;;;143732;564;47020;-87
2021/10/21 01:35:12;;;;;;;17.45;13.43;;;;;;;;;;143731;620;46919;-87
2021/10/21 01:37:39;;;;;;;15.63;14.05;;;;;;;;;;143732;566;47021;-87
2021/10/21 01:40:11;;;;;;;15.85;14.23;;;;;;;;;;143733;579;46010;-90
2021/10/21 01:42:42;;;;;;;16.58;14.90;;;;;;;;;;143732;574;47022;-88
2021/10/21 01:45:20;;;;;;;24.58;15.20;;;;;;;;;;143730;605;46919;-88
2021/10/21 01:47:48;;;;;;;15.35;13.75;;;;;;;;;;143734;575;46020;-88
2021/10/21 01:50:15;;;;;;;16.42;13.98;;;;;;;;;;143735;577;46010;-87
2021/10/21 01:52:42;;;;;;;17.80;13.50;;;;;;;;;;143732;690;47020;-88
2021/10/21 01:55:10;;;;;;;16.27;13.70;;;;;;;;;;143733;570;46010;-87
2021/10/21 01:57:37;;;;;;;15.02;13.27;;;;;;;;;;143734;581;46020;-87
2021/10/21 02:00:09;;;;;;;17.42;14.52;;;;;;;;;;143733;670;46010;-88
2021/10/21 02:02:35;;;;;;;19.65;15.05;;;;;;;;;;143731;593;47022;-88
2021/10/21 02:05:03;;;;;;;16.45;14.75;;;;;;;;;;143730;590;46918;-87
2021/10/21 02:07:29;;;;;;;16.65;14.95;;;;;;;;;;143734;611;46021;-87
2021/10/21 02:09:56;;;;;;;15.55;14.10;;;;;;;;;;143734;625;46010;-87
2021/10/21 02:12:23;;;;;;;17.98;14.55;;;;;;;;;;143731;622;47022;-89
2021/10/21 02:14:50;;;;;;;17.50;14.82;;;;;;;;;;143731;611;46010;-88
2021/10/21 02:17:16;;;;;;;15.38;13.88;;;;;;;;;;143733;592;47020;-89
2021/10/21 02:19:43;;;;;;;18.87;15.93;;;;;;;;;;143735;570;46011;-88
2021/10/21 02:22:09;;;;;;;16.75;14.65;;;;;;;;;;143732;587;47020;-88
2021/10/21 02:24:36;;;;;;;20.90;15.48;;;;;;;;;;143733;628;46010;-89
2021/10/21 02:27:03;;;;;;;15.68;14.13;;;;;;;;;;143734;583;47020;-88
2021/10/21 02:29:30;;;;;;;16.42;14.77;;;;;;;;;;143734;564;46021;-88
2021/10/21 02:31:57;;;;;;;15.75;14.10;;;;;;;;;;143732;613;47022;-89
2021/10/21 02:34:24;;;;;;;19.35;14.18;;;;;;;;;;143732;572;46010;-87
2021/10/21 02:36:50;;;;;;;24.23;14.90;;;;;;;;;;143731;613;47020;-88
2021/10/21 02:39:17;;;;;;;18.05;15.82;;;;;;;;;;143734;576;46020;-88
2021/10/21 02:41:44;;;;;;;17.73;15.55;;;;;;;;;;143734;570;47022;-90
2021/10/21 02:44:10;;;;;;;21.35;14.32;;;;;;;;;;143730;606;46919;-88
2021/10/21 02:46:37;;;;;;;16.70;13.80;;;;;;;;;;143732;637;47020;-88
2021/10/21 02:49:05;;;;;;;15.90;13.88;;;;;;;;;;143736;571;46018;-87
2021/10/21 02:51:31;;;;;;;15.77;14.18;;;;;;;;;;143733;573;47021;-86
2021/10/21 02:53:58;;;;;;;17.77;15.45;;;;;;;;;;143733;583;46010;-88
2021/10/21 02:56:25;;;;;;;17.75;14.50;;;;;;;;;;143734;564;47020;-88
2021/10/21 02:58:52;;;;;;;19.05;14.70;;;;;;;;;;143735;569;46010;-88
2021/10/21 03:01:18;;;;;;;15.65;13.70;;;;;;;;;;143732;602;46022;-88
2021/10/21 03:03:45;;;;;;;18.60;14.25;;;;;;;;;;143733;574;47020;-89
2021/10/21 03:06:12;;;;;;;18.48;14.55;;;;;;;;;;143733;617;47021;-88
2021/10/21 03:08:39;;;;;;;17.08;15.02;;;;;;;;;;143737;569;46020;-88
2021/10/21 03:11:05;;;;;;;15.20;13.32;;;;;;;;;;143734;708;46020;-87
2021/10/21 03:13:32;;;;;;;16.77;13.07;;;;;;;;;;143732;611;46010;-88
2021/10/21 03:16:00;;;;;;;14.13;12.77;;;;;;;;;;143735;577;46022;-88
2021/10/21 03:18:37;;;;;;;18.52;13.45;;;;;;;;;;143736;593;46012;-90
2021/10/21 03:21:04;;;;;;;19.48;14.90;;;;;;;;;;143733;593;47021;-87
2021/10/21 03:23:31;;;;;;;16.95;15.07;;;;;;;;;;143731;564;47010;-88
2021/10/21 03:25:57;;;;;;;20.67;16.67;;;;;;;;;;143734;594;46020;-89
2021/10/21 03:28:24;;;;;;;26.00;17.17;;;;;;;;;;143735;564;46010;-89
2021/10/21 03:30:51;;;;;;;20.00;15.50;;;;;;;;;;143733;573;47020;-89
2021/10/21 03:33:17;;;;;;;18.33;14.35;;;;;;;;;;143733;608;46010;-89
2021/10/21 03:35:44;;;;;;;18.33;16.35;;;;;;;;;;143735;605;46021;-87
2021/10/21 03:38:11;;;;;;;17.80;15.98;;;;;;;;;;143734;580;46020;-88
2021/10/21 03:40:38;;;;;;;20.80;16.10;;;;;;;;;;143733;587;47020;-87
2021/10/21 03:43:04;;;;;;;21.75;16.80;;;;;;;;;;143734;599;46041;-90
2021/10/21 03:45:31;;;;;;;24.80;17.00;;;;;;;;;;143735;564;47020;-90
2021/10/21 03:47:58;;;;;;;17.40;15.55;;;;;;;;;;143736;575;46010;-89
2021/10/21 03:50:25;;;;;;;17.98;15.93;;;;;;;;;;143732;565;47023;-87
2021/10/21 03:52:52;;;;;;;22.67;15.18;;;;;;;;;;143732;571;46010;-89
2021/10/21 03:55:18;;;;;;;19.05;15.40;;;;;;;;;;143732;743;46012;-88
2021/10/21 03:57:45;;;;;;;20.27;15.32;;;;;;;;;;143736;580;46010;-88
2021/10/21 04:00:12;;;;;;;16.87;15.02;;;;;;;;;;143730;564;47022;-89
2021/10/21 04:02:39;;;;;;;26.12;15.82;;;;;;;;;;143732;563;46010;-87
2021/10/21 04:05:07;;;;;;;18.37;15.50;;;;;;;;;;143733;610;47021;-89
2021/10/21 04:07:34;;;;;;;18.75;14.80;;;;;;;;;;143735;572;46010;-88
2021/10/21 04:10:02;;;;;;;24.25;15.90;;;;;;;;;;143732;576;47022;-88
2021/10/21 04:12:28;;;;;;;16.50;14.30;;;;;;;;;;143735;565;46040;-89
2021/10/21 04:14:55;;;;;;;22.40;15.65;;;;;;;;;;143732;580;47020;-89
2021/10/21 04:17:21;;;;;;;18.65;14.73;;;;;;;;;;143736;624;46020;-88
2021/10/21 04:19:48;;;;;;;15.68;14.00;;;;;;;;;;143733;607;47023;-88
2021/10/21 04:22:15;;;;;;;24.87;16.55;;;;;;;;;;143734;603;46010;-88
2021/10/21 04:24:42;;;;;;;24.60;14.93;;;;;;;;;;143734;569;47020;-88
2021/10/21 04:27:09;;;;;;;18.17;16.08;;;;;;;;;;143736;613;46010;-88
2021/10/21 04:29:36;;;;;;;18.12;15.00;;;;;;;;;;143733;583;47020;-89
2021/10/21 04:32:03;;;;;;;19.48;16.08;;;;;;;;;;143733;609;46010;-88
2021/10/21 04:34:29;;;;;;;24.05;15.45;;;;;;;;;;143731;629;47021;-90
2021/10/21 04:36:57;;;;;;;23.20;14.80;;;;;;;;;;143737;618;46020;-90
2021/10/21 04:39:24;;;;;;;23.50;16.15;;;;;;;;;;143732;607;47022;-88
2021/10/21 04:41:50;;;;;;;23.85;17.95;;;;;;;;;;143733;564;46021;-88
2021/10/21 04:44:17;;;;;;;19.17;17.15;;;;;;;;;;143735;569;46020;-90
2021/10/21 04:46:44;;;;;;;27.40;18.62;;;;;;;;;;143734;661;46010;-89
2021/10/21 04:49:10;;;;;;;25.23;16.05;;;;;;;;;;143733;585;47020;-88
2021/10/21 04:51:37;;;;;;;21.95;16.25;;;;;;;;;;143732;582;46010;-88
2021/10/21 04:54:04;;;;;;;19.98;16.58;;;;;;;;;;143735;588;47020;-88
2021/10/21 04:56:31;;;;;;;22.42;15.57;;;;;;;;;;143736;621;46010;-87
2021/10/21 04:58:57;;;;;;;21.85;16.75;;;;;;;;;;143733;623;47020;-89
2021/10/21 05:01:24;;;;;;;22.77;17.48;;;;;;;;;;143731;583;46010;-88
2021/10/21 05:03:51;;;;;;;33.88;19.15;;;;;;;;;;143734;564;47021;-87
2021/10/21 05:06:18;;;;;;;26.27;19.12;;;;;;;;;;143734;609;46010;-86
2021/10/21 05:08:45;;;;;;;30.77;16.10;;;;;;;;;;143732;574;47022;-88
2021/10/21 05:11:12;;;;;;;22.80;17.02;;;;;;;;;;143732;641;46010;-87
2021/10/21 05:13:38;;;;;;;23.00;17.85;;;;;;;;;;143735;639;47018;-88
2021/10/21 05:16:05;;;;;;;22.77;17.15;;;;;;;;;;143735;596;46010;-87
2021/10/21 05:18:32;;;;;;;26.95;16.75;;;;;;;;;;143735;603;47021;-85
2021/10/21 05:20:58;;;;;;;20.48;18.00;;;;;;;;;;143733;625;46010;-86
2021/10/21 05:23:25;;;;;;;20.40;16.58;;;;;;;;;;143733;597;46020;-87
2021/10/21 05:25:52;;;;;;;22.23;18.12;;;;;;;;;;143735;590;48011;-87
2021/10/21 05:28:19;;;;;;;24.85;17.50;;;;;;;;;;143730;585;47023;-87
2021/10/21 05:30:46;;;;;;;27.73;17.05;;;;;;;;;;143733;622;48020;-87
2021/10/21 05:33:13;;;;;;;24.02;16.52;;;;;;;;;;143734;594;47021;-87
2021/10/21 05:35:40;;;;;;;24.52;16.27;;;;;;;;;;143736;597;46020;-87
2021/10/21 05:38:07;;;;;;;21.73;15.98;;;;;;;;;;143734;602;46012;-86
2021/10/21 05:40:34;;;;;;;20.60;16.75;;;;;;;;;;143732;598;46011;-87
2021/10/21 05:43:00;;;;;;;26.33;17.33;;;;;;;;;;143734;597;47021;-88
2021/10/21 05:45:27;;;;;;;21.05;16.37;;;;;;;;;;143733;580;46010;-86
2021/10/21 05:47:54;;;;;;;19.73;16.48;;;;;;;;;;143734;589;47020;-88
2021/10/21 05:50:20;;;;;;;28.00;16.73;;;;;;;;;;143733;584;46010;-87
2021/10/21 05:52:47;;;;;;;25.55;18.12;;;;;;;;;;143733;569;47020;-87
2021/10/21 05:55:14;;;;;;;21.55;17.23;;;;;;;;;;143734;572;47010;-88
2021/10/21 05:57:41;;;;;;;27.17;16.90;;;;;;;;;;143733;604;47023;-87
2021/10/21 06:00:10;;;;;;;22.02;16.83;;;;;;;;;;143732;614;46010;-87
2021/10/21 06:02:38;;;;;;;22.75;16.80;;;;;;;;;;143734;593;46020;-87
2021/10/21 06:05:06;;;;;;;24.20;18.33;;;;;;;;;;143735;571;46018;-87
2021/10/21 06:07:33;;;;;;;31.27;19.50;;;;;;;;;;143733;569;47022;-87
2021/10/21 06:10:00;;;;;;;26.77;17.77;;;;;;;;;;143732;674;47021;-87
2021/10/21 06:12:26;;;;;;;26.23;17.77;;;;;;;;;;143734;587;47021;-88
2021/10/21 06:14:54;;;;;;;27.08;18.20;;;;;;;;;;143737;571;46018;-87
2021/10/21 06:17:22;;;;;;;27.98;18.62;;;;;;;;;;143734;569;46022;-89
2021/10/21 06:19:49;;;;;;;32.10;18.05;;;;;;;;;;143732;607;46010;-87
2021/10/21 06:22:18;;;;;;;18.90;16.98;;;;;;;;;;143734;595;47020;-87
2021/10/21 06:24:46;;;;;;;39.95;20.40;;;;;;;;;;143735;599;46028;-88
2021/10/21 06:27:13;;;;;;;44.90;22.00;;;;;;;;;;143732;671;47020;-87
2021/10/21 06:29:40;;;;;;;25.67;19.90;;;;;;;;;;143734;566;46010;-87
2021/10/21 06:32:08;;;;;;;29.45;21.33;;;;;;;;;;143731;569;47020;-87
2021/10/21 06:34:35;;;;;;;28.70;19.73;;;;;;;;;;143735;588;46011;-87
2021/10/21 06:37:02;;;;;;;30.10;19.02;;;;;;;;;;143732;594;47020;-88
2021/10/21 06:39:29;;;;;;;29.37;21.33;;;;;;;;;;143733;565;46010;-87
2021/10/21 06:41:55;;;;;;;35.65;19.90;;;;;;;;;;143734;615;46049;-86
2021/10/21 06:44:22;;;;;;;37.33;21.65;;;;;;;;;;143735;584;46010;-88
2021/10/21 06:46:49;;;;;;;29.70;21.62;;;;;;;;;;143733;566;47022;-85
2021/10/21 06:49:16;;;;;;;28.38;21.75;;;;;;;;;;143732;599;46011;-87
2021/10/21 06:51:42;;;;;;;40.42;20.90;;;;;;;;;;143735;569;46020;-87
2021/10/21 06:54:09;;;;;;;24.65;22.08;;;;;;;;;;143735;579;46010;-86
2021/10/21 06:56:36;;;;;;;25.95;19.80;;;;;;;;;;143731;600;47023;-86
2021/10/21 06:59:03;;;;;;;31.35;20.73;;;;;;;;;;143731;587;46010;-88
2021/10/21 07:01:30;;;;;;;27.52;20.85;;;;;;;;;;143731;609;47020;-88
2021/10/21 07:04:00;;;;;;;28.73;21.87;;;;;;;;;;143731;564;47021;-86
2021/10/21 07:06:27;;;;;;;29.70;20.15;;;;;;;;;;143729;625;47020;-86
2021/10/21 07:08:54;;;;;;;27.25;20.83;;;;;;;;;;143732;564;46010;-87
2021/10/21 07:11:23;;;;;;;25.10;21.00;;;;;;;;;;143733;569;46048;-86
2021/10/21 07:13:49;;;;;;;26.35;21.98;;;;;;;;;;143733;575;46020;-88
2021/10/21 07:16:16;;;;;;;26.33;22.40;;;;;;;;;;143731;591;47020;-86
2021/10/21 07:18:43;;;;;;;31.67;22.25;;;;;;;;;;143733;570;46010;-86
2021/10/21 07:21:11;;;;;;;28.05;21.98;;;;;;;;;;143734;564;46020;-87
2021/10/21 07:23:38;;;;;;;26.62;20.37;;;;;;;;;;143733;639;46020;-88
2021/10/21 07:26:04;;;;;;;28.45;20.60;;;;;;;;;;143730;577;47023;-87
2021/10/21 07:28:31;;;;;;;32.60;21.10;;;;;;;;;;143731;622;46919;-87
2021/10/21 07:30:58;;;;;;;30.17;19.95;;;;;;;;;;143730;648;47020;-87
2021/10/21 07:33:25;;;;;;;25.60;19.17;;;;;;;;;;143732;581;46010;-86
2021/10/21 07:35:52;;;;;;;21.77;17.77;;;;;;;;;;143731;583;47020;-87
2021/10/21 07:38:19;;;;;;;25.80;19.05;;;;;;;;;;143731;576;46010;-86
2021/10/21 07:40:46;;;;;;;19.65;17.73;;;;;;;;;;143732;612;47021;-86
2021/10/21 07:43:15;;;;;;;22.33;17.15;;;;;;;;;;143734;591;46010;-89
2021/10/21 07:45:43;;;;;;;17.45;13.98;;;;;;;;;;143730;582;47020;-88
2021/10/21 07:48:10;;;;;;;25.00;17.08;;;;;;;;;;143732;605;46021;-86
2021/10/21 07:50:37;;;;;;;21.70;17.15;;;;;;;;;;143732;610;47020;-87
2021/10/21 07:53:05;;;;;;;34.75;19.27;;;;;;;;;;143734;590;46020;-83
2021/10/21 07:55:35;;;;;;;21.98;18.45;;;;;;;;;;143734;590;46022;-83
2021/10/21 07:58:03;;;;;;;157.95;116.05;;;;;;;;;;143732;580;46010;-84
2021/10/21 08:00:29;;;;;;;35.72;26.52;;;;;;;;;;143732;600;47020;-84
2021/10/21 08:02:57;;;;;;;25.27;22.42;;;;;;;;;;143735;580;46010;-84
2021/10/21 08:05:37;;;;;;;23.83;18.70;;;;;;;;;;143734;581;46022;-85
2021/10/21 08:08:16;;;;;;;24.17;18.55;;;;;;;;;;143736;575;45919;-88
2021/10/21 08:10:59;;;;;;;17.67;15.85;;;;;;;;;;143737;580;45021;-87
2021/10/21 08:13:34;;;;;;;18.65;14.05;;;;;;;;;;143759;590;46020;-88
2021/10/21 08:16:04;;;;;;;15.63;14.02;;;;;;;;;;143755;573;46021;-88
2021/10/21 08:18:32;;;;;;;18.08;13.30;;;;;;;;;;143753;575;45922;-86
2021/10/21 08:21:07;;;;;;;15.68;13.95;;;;;;;;;;143754;667;47020;-86
2021/10/21 08:23:37;;;;;;;17.10;12.18;;;;;;;;;;143748;598;46010;-86
2021/10/21 08:26:09;;;;;;;15.00;13.00;;;;;;;;;;143752;585;47021;-87
2021/10/21 08:28:48;;;;;;;15.55;14.00;;;;;;;;;;143751;720;45921;-87
2021/10/21 08:31:18;;;;;;;15.68;14.13;;;;;;;;;;143754;595;47020;-88
2021/10/21 08:33:45;;;;;;;14.23;12.88;;;;;;;;;;143758;573;45021;-86
2021/10/21 08:36:16;;;;;;;15.02;13.57;;;;;;;;;;143745;587;47022;-88
2021/10/21 08:38:43;;;;;;;14.27;11.82;;;;;;;;;;143751;575;45921;-88
2021/10/21 08:41:17;;;;;;;14.50;12.68;;;;;;;;;;143752;666;47021;-87
2021/10/21 08:43:44;;;;;;;21.37;13.60;;;;;;;;;;143757;626;45020;-86
2021/10/21 08:46:20;;;;;;;13.95;12.55;;;;;;;;;;143755;639;47022;-87
2021/10/21 08:48:48;;;;;;;14.18;12.70;;;;;;;;;;143752;587;46921;-88
2021/10/21 08:51:16;;;;;;;14.63;11.63;;;;;;;;;;143752;580;47018;-89
2021/10/21 08:53:43;;;;;;;19.35;12.23;;;;;;;;;;143749;656;46010;-87
2021/10/21 08:56:10;;;;;;;13.13;11.73;;;;;;;;;;143754;573;46039;-88
2021/10/21 08:58:37;;;;;;;13.90;12.50;;;;;;;;;;143752;711;45921;-87
2021/10/21 09:01:09;;;;;;;15.13;13.07;;;;;;;;;;143754;642;46020;-88
2021/10/21 09:04:00;;;;;;;16.80;13.70;;;;;;;;;;143751;599;45021;-88
2021/10/21 09:06:34;;;;;;;12.93;11.57;;;;;;;;;;143753;679;46022;-88
2021/10/21 09:09:01;;;;;;;13.43;12.13;;;;;;;;;;143753;592;45921;-88
2021/10/21 09:11:28;;;;;;;12.32;11.12;;;;;;;;;;143748;593;46021;-87
2021/10/21 09:14:09;;;;;;;13.20;11.88;;;;;;;;;;143733;576;46010;-87
2021/10/21 09:16:36;;;;;;;12.48;11.25;;;;;;;;;;143732;653;47022;-87
2021/10/21 09:19:13;;;;;;;14.23;12.32;;;;;;;;;;143730;584;46010;-87
2021/10/21 09:21:41;;;;;;;14.82;11.65;;;;;;;;;;143732;677;47020;-87
2021/10/21 09:24:30;;;;;;;20.83;11.93;;;;;;;;;;143733;574;47019;-88
2021/10/21 09:27:18;;;;;;;14.95;11.40;;;;;;;;;;143730;633;47025;-88
2021/10/21 09:29:55;;;;;;;12.55;10.80;;;;;;;;;;143732;570;46010;-87
2021/10/21 09:32:27;;;;;;;13.82;11.57;;;;;;;;;;143735;565;46021;-87
2021/10/21 09:35:05;;;;;;;12.57;11.23;;;;;;;;;;143732;576;46010;-87
2021/10/21 09:37:39;;;;;;;13.75;11.15;;;;;;;;;;143734;563;46022;-88
2021/10/21 09:40:30;;;;;;;13.80;11.95;;;;;;;;;;143731;569;46010;-88
2021/10/21 09:43:05;;;;;;;12.77;11.45;;;;;;;;;;143733;570;47020;-86
2021/10/21 09:45:41;;;;;;;14.90;11.25;;;;;;;;;;143733;563;46010;-89
2021/10/21 09:48:09;;;;;;;14.70;11.82;;;;;;;;;;143731;576;47023;-88
2021/10/21 09:50:39;;;;;;;18.25;13.30;;;;;;;;;;143731;692;46010;-87
2021/10/21 09:53:32;;;;;;;12.60;11.38;;;;;;;;;;143732;606;47021;-87
2021/10/21 09:56:08;;;;;;;14.05;12.68;;;;;;;;;;143733;610;46010;-84
2021/10/21 09:58:42;;;;;;;13.48;11.30;;;;;;;;;;143732;606;46022;-85
2021/10/21 10:01:13;;;;;;;16.75;12.48;;;;;;;;;;143731;585;47020;-87
2021/10/21 10:03:42;;;;;;;17.30;12.37;;;;;;;;;;143731;631;47020;-85
2021/10/21 10:06:12;;;;;;;12.25;10.95;;;;;;;;;;143733;732;46010;-86
2021/10/21 10:08:39;;;;;;;10.88;9.77;;;;;;;;;;143731;576;47021;-87
2021/10/21 10:11:19;;;;;;;12.07;11.00;;;;;;;;;;143731;581;46010;-87
2021/10/21 10:13:53;;;;;;;11.43;10.38;;;;;;;;;;143732;629;46020;-87
2021/10/21 10:16:20;;;;;;;14.48;11.18;;;;;;;;;;143733;719;46021;-87
2021/10/21 10:18:48;;;;;;;15.10;10.63;;;;;;;;;;143730;709;47020;-88
2021/10/21 10:21:31;;;;;;;16.33;11.45;;;;;;;;;;143732;566;46020;-86
2021/10/21 10:24:06;;;;;;;17.70;10.95;;;;;;;;;;143732;614;47020;-86
2021/10/21 10:27:18;;;;;;;13.25;10.50;;;;;;;;;;143733;577;46010;-87
2021/10/21 10:29:47;;;;;;;14.52;11.18;;;;;;;;;;143728;565;47020;-88
2021/10/21 10:32:43;;;;;;;12.88;11.57;;;;;;;;;;143731;591;46011;-87
2021/10/21 10:35:36;;;;;;;11.43;10.32;;;;;;;;;;143733;585;46020;-88
2021/10/21 10:38:07;;;;;;;12.07;10.97;;;;;;;;;;143732;583;46020;-88
2021/10/21 10:40:45;;;;;;;12.57;11.05;;;;;;;;;;143731;573;46023;-88
2021/10/21 10:43:14;;;;;;;14.57;10.88;;;;;;;;;;143730;570;46012;-90
2021/10/21 10:45:51;;;;;;;21.55;14.07;;;;;;;;;;143733;572;47020;-87
2021/10/21 10:48:47;;;;;;;13.75;12.25;;;;;;;;;;143732;581;46010;-86
2021/10/21 10:51:14;;;;;;;12.55;11.35;;;;;;;;;;143732;570;47024;-89
2021/10/21 10:53:47;;;;;;;12.88;11.68;;;;;;;;;;143731;571;46010;-87
2021/10/21 10:56:41;;;;;;;12.37;11.27;;;;;;;;;;143730;569;47020;-86
2021/10/21 10:59:20;;;;;;;13.52;11.82;;;;;;;;;;143734;587;46018;-86
2021/10/21 11:01:49;;;;;;;13.20;11.80;;;;;;;;;;143731;598;47023;-86
2021/10/21 11:05:12;;;;;;;14.45;11.60;;;;;;;;;;143732;602;46012;-87
2021/10/21 11:07:57;;;;;;;11.13;10.03;;;;;;;;;;143732;608;47020;-87
2021/10/21 11:10:44;;;;;;;12.27;11.07;;;;;;;;;;143733;570;46010;-87
2021/10/21 11:13:48;;;;;;;12.68;11.48;;;;;;;;;;143732;600;46022;-88
2021/10/21 11:16:53;;;;;;;13.00;9.80;;;;;;;;;;143730;601;46021;-86
2021/10/21 11:19:58;;;;;;;13.10;11.25;;;;;;;;;;143732;573;47020;-88
2021/10/21 11:22:44;;;;;;;14.30;11.05;;;;;;;;;;143734;564;46012;-87
2021/10/21 11:25:11;;;;;;;12.20;10.98;;;;;;;;;;143729;594;47025;-86
2021/10/21 11:27:40;;;;;;;17.20;11.38;;;;;;;;;;143731;662;47010;-87
2021/10/21 11:30:10;;;;;;;15.82;11.48;;;;;;;;;;143733;575;46021;-89
2021/10/21 11:32:39;;;;;;;14.02;11.00;;;;;;;;;;143734;648;46010;-85
2021/10/21 11:35:13;;;;;;;12.52;11.18;;;;;;;;;;143728;606;47022;-87
2021/10/21 11:37:59;;;;;;;11.60;10.32;;;;;;;;;;143730;594;46011;-87
2021/10/21 11:40:30;;;;;;;12.15;10.95;;;;;;;;;;143732;573;47020;-87
2021/10/21 11:43:00;;;;;;;12.30;10.25;;;;;;;;;;143733;592;46010;-87
2021/10/21 11:45:37;;;;;;;11.10;10.00;;;;;;;;;;143732;592;46047;-87
2021/10/21 11:48:13;;;;;;;10.23;9.30;;;;;;;;;;143731;579;46010;-86
2021/10/21 11:50:46;;;;;;;16.10;10.43;;;;;;;;;;143732;653;46020;-87
2021/10/21 11:53:14;;;;;;;18.25;9.55;;;;;;;;;;143732;613;46011;-87
2021/10/21 11:55:42;;;;;;;15.35;10.48;;;;;;;;;;143729;565;47022;-85
2021/10/21 11:58:19;;;;;;;11.07;9.93;;;;;;;;;;143731;587;46010;-86
2021/10/21 12:00:51;;;;;;;12.15;10.95;;;;;;;;;;143734;629;46044;-86
2021/10/21 12:03:18;;;;;;;11.60;10.25;;;;;;;;;;143734;592;46010;-85
2021/10/21 12:05:46;;;;;;;15.25;9.25;;;;;;;;;;143731;616;47020;-86
2021/10/21 12:08:21;;;;;;;16.67;10.27;;;;;;;;;;143730;623;46010;-86
2021/10/21 12:10:49;;;;;;;10.57;9.50;;;;;;;;;;143734;571;46020;-85
2021/10/21 12:13:31;;;;;;;11.02;8.88;;;;;;;;;;143734;570;46010;-86
2021/10/21 12:16:09;;;;;;;13.60;9.15;;;;;;;;;;143730;720;47021;-86
2021/10/21 12:18:37;;;;;;;10.50;8.68;;;;;;;;;;143731;622;46010;-86
2021/10/21 12:21:06;;;;;;;11.82;9.48;;;;;;;;;;143732;641;47020;-87
2021/10/21 12:23:35;;;;;;;10.60;9.50;;;;;;;;;;143732;582;46021;-87
2021/10/21 12:26:07;;;;;;;9.57;8.68;;;;;;;;;;143731;619;47022;-86
2021/10/21 12:28:39;;;;;;;9.57;8.40;;;;;;;;;;143732;700;46010;-86
2021/10/21 12:31:32;;;;;;;9.37;8.43;;;;;;;;;;143733;613;47021;-86
2021/10/21 12:34:04;;;;;;;13.38;8.52;;;;;;;;;;143734;610;46010;-86
2021/10/21 12:36:41;;;;;;;11.75;8.00;;;;;;;;;;143731;626;47022;-86
2021/10/21 12:39:14;;;;;;;13.80;9.30;;;;;;;;;;143729;592;46920;-87
2021/10/21 12:41:57;;;;;;;9.02;8.13;;;;;;;;;;143732;589;46029;-87
2021/10/21 12:44:33;;;;;;;9.02;7.97;;;;;;;;;;143734;574;46010;-86
2021/10/21 12:47:32;;;;;;;10.65;9.48;;;;;;;;;;143731;572;47023;-85
2021/10/21 12:50:11;;;;;;;10.43;9.25;;;;;;;;;;143731;565;46010;-87
2021/10/21 12:52:42;;;;;;;11.40;8.88;;;;;;;;;;143733;581;46021;-85
2021/10/21 12:55:37;;;;;;;9.60;8.70;;;;;;;;;;143733;655;46010;-87
2021/10/21 12:58:06;;;;;;;9.50;8.48;;;;;;;;;;143732;565;47024;-86
2021/10/21 13:00:38;;;;;;;8.93;8.02;;;;;;;;;;143731;571;46011;-86
2021/10/21 13:03:20;;;;;;;13.57;8.95;;;;;;;;;;143734;620;46020;-88
2021/10/21 13:05:50;;;;;;;11.32;8.55;;;;;;;;;;143734;599;46010;-87
2021/10/21 13:08:16;;;;;;;11.68;8.80;;;;;;;;;;143732;583;47023;-86
2021/10/21 13:13:40;;;;;;;14.23;8.85;;;;;;;;;;143752;593;47020;-88
2021/10/21 13:16:10;;;;;;;9.57;8.32;;;;;;;;;;143752;633;46010;-88
2021/10/21 13:18:38;;;;;;;9.30;8.35;;;;;;;;;;143753;595;47020;-87
2021/10/21 13:21:06;;;;;;;9.80;7.90;;;;;;;;;;143751;626;45918;-87
2021/10/21 13:23:34;;;;;;;9.25;8.35;;;;;;;;;;143753;588;47021;-88
2021/10/21 13:26:01;;;;;;;13.10;8.73;;;;;;;;;;143749;626;46010;-87
2021/10/21 13:28:28;;;;;;;9.60;8.65;;;;;;;;;;143752;581;47022;-86
2021/10/21 13:30:55;;;;;;;10.25;8.30;;;;;;;;;;143751;607;45918;-90
2021/10/21 13:33:22;;;;;;;10.40;7.90;;;;;;;;;;143754;596;47020;-87
2021/10/21 13:35:48;;;;;;;11.95;8.25;;;;;;;;;;143756;596;45021;-87
2021/10/21 13:38:18;;;;;;;11.05;8.50;;;;;;;;;;143755;589;46052;-88
2021/10/21 13:40:45;;;;;;;16.42;8.65;;;;;;;;;;143754;571;45917;-87
2021/10/21 13:43:13;;;;;;;9.02;8.02;;;;;;;;;;143756;613;47020;-87
2021/10/21 13:45:40;;;;;;;9.57;8.68;;;;;;;;;;143755;627;46021;-89
2021/10/21 13:48:13;;;;;;;8.80;8.00;;;;;;;;;;143755;609;46022;-88
2021/10/21 13:50:41;;;;;;;8.07;7.22;;;;;;;;;;143752;645;46021;-87
2021/10/21 13:53:11;;;;;;;16.50;8.30;;;;;;;;;;143752;617;47021;-87
2021/10/21 13:55:37;;;;;;;8.20;7.12;;;;;;;;;;143754;611;47020;-89
2021/10/21 13:58:04;;;;;;;9.20;7.45;;;;;;;;;;143755;599;46022;-87
2021/10/21 14:00:31;;;;;;;8.77;7.93;;;;;;;;;;143752;618;45918;-86
2021/10/21 14:02:58;;;;;;;8.52;7.68;;;;;;;;;;143754;585;45020;-86
2021/10/21 14:05:25;;;;;;;8.55;7.47;;;;;;;;;;143755;605;46018;-87
2021/10/21 14:07:52;;;;;;;8.18;7.18;;;;;;;;;;143754;569;47023;-88
2021/10/21 14:10:19;;;;;;;8.45;7.57;;;;;;;;;;143753;585;45917;-88
2021/10/21 14:12:46;;;;;;;9.00;7.53;;;;;;;;;;143739;575;47020;-89
2021/10/21 14:15:13;;;;;;;13.13;7.97;;;;;;;;;;143734;614;46021;-88
2021/10/21 14:17:44;;;;;;;8.50;7.05;;;;;;;;;;143732;574;46909;-91
2021/10/21 14:20:23;;;;;;;10.30;7.05;;;;;;;;;;143728;571;47020;-91
2021/10/21 14:22:59;;;;;;;8.95;7.93;;;;;;;;;;143734;595;46021;-89
2021/10/21 14:25:33;;;;;;;9.63;8.13;;;;;;;;;;143736;569;46020;-89
2021/10/21 14:28:07;;;;;;;9.63;7.15;;;;;;;;;;143733;565;46020;-89
2021/10/21 14:30:57;;;;;;;7.90;7.00;;;;;;;;;;143731;600;46020;-89
2021/10/21 14:33:28;;;;;;;8.98;6.25;;;;;;;;;;143733;578;46012;-90
2021/10/21 14:35:58;;;;;;;8.77;7.87;;;;;;;;;;143736;659;45586;-91
2021/10/21 14:38:26;;;;;;;11.00;7.78;;;;;;;;;;143735;597;46021;-88
2021/10/21 14:40:53;;;;;;;11.38;8.60;;;;;;;;;;143732;587;46010;-88
2021/10/21 14:43:26;;;;;;;13.15;8.27;;;;;;;;;;143734;587;47020;-92
2021/10/21 14:46:05;;;;;;;11.07;9.23;;;;;;;;;;143736;607;46020;-88